Time;durP1;ratioP1;P1;durP2;ratioP2;P2;SDS_P1;SDS_P2;PMS_P1;PMS_P2;Temp;Humidity;BMP_temperature;BMP_pressure;BME280_temperature;BME280_humidity;BME280_pressure;Samples;Min_cycle;Max_cycle;Signal;HPM_P1;HPM_P2
2023/08/07 00:01:01;;;;;;;8.25;2.95;;;16.00;61.50;;;;;;5056797;28;20105;-68
2023/08/07 00:03:27;;;;;;;4.47;2.42;;;16.00;61.60;;;;;;5063732;28;20032;-67
2023/08/07 00:05:53;;;;;;;5.88;3.47;;;15.90;61.50;;;;;;5056154;28;20017;-67
2023/08/07 00:08:19;;;;;;;3.92;2.65;;;15.90;61.60;;;;;;5054299;28;20028;-68
2023/08/07 00:10:45;;;;;;;3.83;2.85;;;15.90;61.70;;;;;;5081813;28;20035;-67
2023/08/07 00:13:11;;;;;;;6.47;3.28;;;15.90;61.70;;;;;;5060815;28;20214;-69
2023/08/07 00:15:40;;;;;;;4.70;3.15;;;15.80;61.60;;;;;;5070622;28;20043;-68
2023/08/07 00:18:06;;;;;;;3.95;2.60;;;15.80;61.80;;;;;;5072459;28;20028;-68
2023/08/07 00:20:32;;;;;;;9.05;3.85;;;15.80;61.90;;;;;;5069143;28;20059;-67
2023/08/07 00:22:58;;;;;;;5.55;2.60;;;15.80;61.90;;;;;;5058899;28;20090;-67
2023/08/07 00:25:24;;;;;;;5.75;3.10;;;15.80;61.90;;;;;;5064199;28;20493;-67
2023/08/07 00:27:50;;;;;;;5.88;3.13;;;15.70;61.80;;;;;;5063350;28;20115;-68
2023/08/07 00:30:16;;;;;;;3.60;2.20;;;15.70;61.90;;;;;;5052691;28;20063;-71
2023/08/07 00:32:43;;;;;;;3.70;2.38;;;15.70;62.00;;;;;;5061123;28;20063;-68
2023/08/07 00:35:09;;;;;;;4.30;2.30;;;15.70;62.10;;;;;;5066497;28;20485;-69
2023/08/07 00:37:35;;;;;;;3.47;2.55;;;15.70;62.10;;;;;;5059653;28;20116;-71
2023/08/07 00:40:02;;;;;;;5.30;2.65;;;15.70;62.20;;;;;;5062378;28;20086;-67
2023/08/07 00:42:28;;;;;;;5.35;2.53;;;15.70;62.30;;;;;;5061521;28;20024;-69
2023/08/07 00:44:54;;;;;;;4.05;2.35;;;15.70;62.30;;;;;;5061054;28;20056;-69
2023/08/07 00:47:20;;;;;;;4.72;2.80;;;15.70;62.40;;;;;;5062082;28;20440;-69
2023/08/07 00:49:48;;;;;;;4.43;2.35;;;15.60;62.30;;;;;;5065540;28;20028;-68
2023/08/07 00:52:14;;;;;;;4.22;2.50;;;15.70;62.50;;;;;;5065873;28;20028;-69
2023/08/07 00:54:40;;;;;;;5.20;2.60;;;15.70;62.60;;;;;;5060780;28;20068;-69
2023/08/07 00:57:11;;;;;;;4.50;3.10;;;15.70;62.60;;;;;;5059910;28;20201;-72
2023/08/07 00:59:39;;;;;;;4.53;3.10;;;15.60;62.60;;;;;;5052545;28;20032;-71
2023/08/07 01:02:06;;;;;;;5.75;3.25;;;15.70;62.80;;;;;;5077016;28;21534;-69
2023/08/07 01:04:32;;;;;;;3.72;2.33;;;15.70;62.90;;;;;;5075581;28;20040;-68
2023/08/07 01:06:58;;;;;;;5.15;2.90;;;15.70;62.90;;;;;;5062990;28;20115;-69
2023/08/07 01:09:26;;;;;;;6.00;2.30;;;15.60;62.80;;;;;;5064571;28;20221;-73
2023/08/07 01:12:18;;;;;;;3.65;2.30;;;15.60;62.80;;;;;;5067038;28;20037;-70
2023/08/07 01:15:06;;;;;;;3.22;2.00;;;15.60;63.00;;;;;;5064974;28;20041;-69
2023/08/07 01:17:34;;;;;;;2.85;2.30;;;15.60;62.90;;;;;;5067829;28;20930;-68
2023/08/07 01:20:01;;;;;;;2.85;1.83;;;15.60;62.90;;;;;;5070430;28;20033;-70
2023/08/07 01:22:28;;;;;;;4.97;2.72;;;15.60;63.00;;;;;;5059998;28;20046;-68
2023/08/07 01:24:56;;;;;;;2.42;1.98;;;15.60;63.10;;;;;;5060995;28;20563;-69
2023/08/07 01:27:41;;;;;;;2.70;2.40;;;15.60;63.20;;;;;;5062605;28;20036;-70
2023/08/07 01:30:10;;;;;;;3.05;2.65;;;15.60;63.30;;;;;;5058836;28;20123;-69
2023/08/07 01:33:01;;;;;;;6.22;3.38;;;15.60;63.20;;;;;;5061801;28;20028;-68
2023/08/07 01:35:33;;;;;;;5.13;2.55;;;15.60;63.40;;;;;;5052312;28;20173;-68
2023/08/07 01:37:59;;;;;;;4.57;2.50;;;15.60;63.30;;;;;;5056656;28;20033;-68
2023/08/07 01:40:28;;;;;;;3.63;2.42;;;15.60;63.30;;;;;;5059799;28;20044;-69
2023/08/07 01:42:54;;;;;;;4.72;2.80;;;15.60;63.40;;;;;;5058889;28;20119;-69
2023/08/07 01:45:24;;;;;;;2.67;2.30;;;15.60;63.50;;;;;;5059533;28;20167;-69
2023/08/07 01:47:52;;;;;;;3.75;2.10;;;15.60;63.50;;;;;;5055343;28;20466;-69
2023/08/07 01:50:23;;;;;;;4.22;2.08;;;15.60;63.50;;;;;;5063963;28;20119;-69
2023/08/07 01:52:50;;;;;;;4.40;2.03;;;15.50;63.30;;;;;;5066563;28;20021;-70
2023/08/07 01:55:18;;;;;;;2.90;2.17;;;15.50;63.30;;;;;;5067529;28;20051;-69
2023/08/07 01:57:50;;;;;;;2.47;1.88;;;15.50;63.40;;;;;;5069746;28;20452;-70
2023/08/07 02:00:16;;;;;;;5.88;2.65;;;15.50;63.30;;;;;;5069254;28;20060;-69
2023/08/07 02:02:44;;;;;;;5.88;2.50;;;15.50;63.40;;;;;;5058519;28;20036;-69
2023/08/07 02:05:10;;;;;;;3.00;2.45;;;15.40;63.20;;;;;;5053681;28;20075;-69
2023/08/07 02:07:36;;;;;;;3.08;2.15;;;15.40;63.30;;;;;;5071632;28;20043;-69
2023/08/07 02:10:05;;;;;;;3.92;2.20;;;15.40;63.30;;;;;;5066503;28;20041;-67
2023/08/07 02:12:32;;;;;;;5.88;2.10;;;15.40;63.40;;;;;;5067013;28;20036;-67
2023/08/07 02:14:59;;;;;;;3.70;2.58;;;15.40;63.40;;;;;;5069529;28;20040;-67
2023/08/07 02:17:27;;;;;;;4.28;2.85;;;15.40;63.50;;;;;;5075613;28;20028;-70
2023/08/07 02:19:53;;;;;;;2.42;1.92;;;15.40;63.50;;;;;;5073380;28;20192;-70
2023/08/07 02:22:19;;;;;;;4.55;2.15;;;15.40;63.50;;;;;;5075743;28;20369;-72
2023/08/07 02:24:48;;;;;;;3.55;2.22;;;15.40;63.60;;;;;;5055258;28;20423;-71
2023/08/07 02:27:14;;;;;;;6.95;2.70;;;15.30;63.40;;;;;;5076805;28;20032;-72
2023/08/07 02:29:40;;;;;;;5.22;3.20;;;15.30;63.50;;;;;;5074404;28;20028;-69
2023/08/07 02:32:06;;;;;;;4.15;2.67;;;15.40;63.70;;;;;;5076545;28;20081;-72
2023/08/07 02:34:32;;;;;;;4.10;2.28;;;15.30;63.50;;;;;;5070490;28;20359;-73
2023/08/07 02:36:59;;;;;;;4.30;2.10;;;15.30;63.50;;;;;;5063526;28;20496;-70
2023/08/07 02:39:25;;;;;;;5.53;2.88;;;15.30;63.60;;;;;;5069331;28;20036;-71
2023/08/07 02:41:51;;;;;;;5.78;2.70;;;15.20;63.40;;;;;;5070822;28;20021;-71
2023/08/07 02:44:18;;;;;;;5.82;2.70;;;15.20;64.00;;;;;;5071135;28;20117;-72
2023/08/07 02:46:44;;;;;;;3.22;2.17;;;15.20;63.50;;;;;;5063730;28;20048;-71
2023/08/07 02:49:10;;;;;;;5.35;2.28;;;15.10;63.40;;;;;;5067212;28;20349;-72
2023/08/07 02:51:37;;;;;;;4.57;2.58;;;15.10;63.50;;;;;;5067069;28;20036;-71
2023/08/07 02:54:03;;;;;;;3.80;2.40;;;15.10;63.50;;;;;;5064998;28;20120;-69
2023/08/07 02:56:29;;;;;;;4.38;3.00;;;15.10;63.60;;;;;;5061380;28;20119;-68
2023/08/07 02:58:58;;;;;;;3.05;1.95;;;15.00;63.40;;;;;;5056941;28;20531;-70
2023/08/07 03:01:24;;;;;;;2.85;2.15;;;15.00;63.50;;;;;;5063167;28;20497;-69
2023/08/07 03:03:50;;;;;;;3.33;2.53;;;14.90;63.40;;;;;;5070234;28;20447;-68
2023/08/07 03:06:16;;;;;;;8.98;2.92;;;14.90;63.40;;;;;;5068241;28;20127;-70
2023/08/07 03:08:42;;;;;;;4.22;2.40;;;14.90;63.40;;;;;;5059256;28;20033;-69
2023/08/07 03:11:08;;;;;;;4.70;2.33;;;14.80;63.30;;;;;;5063331;28;20446;-71
2023/08/07 03:13:35;;;;;;;3.83;1.90;;;14.80;63.30;;;;;;5052719;28;20064;-70
2023/08/07 03:16:02;;;;;;;4.47;2.08;;;14.80;63.40;;;;;;5067833;28;20323;-69
2023/08/07 03:18:29;;;;;;;3.08;1.92;;;14.70;63.30;;;;;;5051518;28;20076;-71
2023/08/07 03:20:57;;;;;;;2.83;1.95;;;14.70;63.40;;;;;;5070454;28;20044;-70
2023/08/07 03:23:24;;;;;;;3.78;2.13;;;14.70;63.90;;;;;;5061792;28;20180;-70
2023/08/07 03:25:50;;;;;;;4.05;2.35;;;14.60;63.30;;;;;;5070508;28;20369;-70
2023/08/07 03:28:17;;;;;;;4.60;1.90;;;14.60;63.30;;;;;;5066536;28;20039;-69
2023/08/07 03:30:44;;;;;;;5.35;2.92;;;14.60;63.40;;;;;;5067806;28;20028;-68
2023/08/07 03:33:12;;;;;;;3.15;2.28;;;14.50;63.30;;;;;;5066865;28;20048;-68
2023/08/07 03:35:40;;;;;;;2.28;1.73;;;14.50;63.30;;;;;;5073794;28;20059;-67
2023/08/07 03:38:06;;;;;;;4.13;2.40;;;14.50;63.30;;;;;;5068476;28;20087;-70
2023/08/07 03:40:33;;;;;;;3.60;1.90;;;14.50;63.40;;;;;;5066683;28;20394;-68
2023/08/07 03:43:00;;;;;;;4.70;1.90;;;14.40;63.30;;;;;;5074403;28;20036;-69
2023/08/07 03:45:26;;;;;;;4.65;2.28;;;14.40;63.30;;;;;;5075416;28;20036;-70
2023/08/07 03:47:52;;;;;;;2.75;1.85;;;14.40;63.30;;;;;;5059021;28;20031;-68
2023/08/07 03:50:19;;;;;;;2.30;2.10;;;14.40;63.30;;;;;;5067089;28;20043;-70
2023/08/07 03:52:44;;;;;;;2.05;1.70;;;14.40;63.40;;;;;;5074130;28;20040;-68
2023/08/07 03:55:11;;;;;;;1.67;1.58;;;14.30;63.30;;;;;;5064965;28;20188;-69
2023/08/07 03:57:37;;;;;;;2.63;2.05;;;14.30;63.30;;;;;;5069627;28;20108;-68
2023/08/07 04:00:04;;;;;;;3.10;1.88;;;14.30;63.30;;;;;;5066387;28;20643;-68
2023/08/07 04:02:39;;;;;;;2.35;1.80;;;14.20;63.20;;;;;;5069023;28;20028;-69
2023/08/07 04:05:06;;;;;;;4.00;2.05;;;14.20;63.20;;;;;;5063894;28;20346;-67
2023/08/07 04:07:32;;;;;;;2.10;1.85;;;14.20;63.20;;;;;;5066211;28;20060;-68
2023/08/07 04:09:59;;;;;;;2.28;1.98;;;14.10;63.10;;;;;;5061761;28;20032;-68
2023/08/07 04:12:25;;;;;;;1.88;1.50;;;14.10;63.20;;;;;;5075533;28;20510;-69
2023/08/07 04:14:51;;;;;;;2.63;1.75;;;14.10;63.20;;;;;;5064006;28;20040;-73
2023/08/07 04:17:18;;;;;;;3.20;1.98;;;14.10;63.20;;;;;;5079031;28;20035;-69
2023/08/07 04:19:44;;;;;;;2.30;1.95;;;14.10;63.30;;;;;;5061790;28;20036;-67
2023/08/07 04:22:11;;;;;;;5.90;1.58;;;14.00;63.10;;;;;;5079796;28;20032;-68
2023/08/07 04:24:36;;;;;;;2.88;1.88;;;14.00;63.20;;;;;;5066775;28;20031;-68
2023/08/07 04:27:02;;;;;;;2.33;1.70;;;13.90;63.00;;;;;;5074410;28;20036;-67
2023/08/07 04:29:28;;;;;;;2.20;1.63;;;13.90;63.00;;;;;;5065447;28;20036;-68
2023/08/07 04:31:54;;;;;;;3.15;1.67;;;13.90;63.10;;;;;;5065037;28;20032;-67
2023/08/07 04:34:20;;;;;;;5.80;1.70;;;13.90;63.20;;;;;;5071790;28;20059;-69
2023/08/07 04:36:46;;;;;;;2.72;1.98;;;13.80;63.00;;;;;;5069502;28;20024;-69
2023/08/07 04:39:13;;;;;;;3.70;2.33;;;13.80;63.00;;;;;;5061360;28;20040;-67
2023/08/07 04:41:39;;;;;;;2.40;1.90;;;13.80;63.00;;;;;;5064740;28;20020;-69
2023/08/07 04:44:05;;;;;;;2.10;1.73;;;13.80;63.10;;;;;;5063135;28;20055;-69
2023/08/07 04:46:30;;;;;;;3.92;2.40;;;13.80;63.10;;;;;;5058278;28;20044;-69
2023/08/07 04:48:56;;;;;;;2.25;1.80;;;13.70;63.00;;;;;;5055854;28;20020;-69
2023/08/07 04:51:23;;;;;;;2.85;1.40;;;13.70;63.00;;;;;;5060174;28;20054;-69
2023/08/07 04:53:50;;;;;;;2.85;1.80;;;13.70;63.10;;;;;;5056485;28;20469;-70
2023/08/07 04:56:17;;;;;;;3.72;2.00;;;13.70;63.10;;;;;;5049917;28;20433;-70
2023/08/07 04:58:43;;;;;;;2.58;1.67;;;13.70;63.10;;;;;;5046625;28;20029;-69
2023/08/07 05:01:09;;;;;;;4.10;1.58;;;13.70;63.10;;;;;;5066798;28;20059;-70
2023/08/07 05:03:34;;;;;;;2.47;1.65;;;13.60;63.00;;;;;;5070697;28;20345;-67
2023/08/07 05:06:01;;;;;;;5.43;2.42;;;13.60;63.00;;;;;;5064849;28;20554;-69
2023/08/07 05:08:28;;;;;;;3.17;1.70;;;13.60;63.00;;;;;;5057338;28;20040;-70
2023/08/07 05:10:54;;;;;;;3.10;1.77;;;13.60;63.10;;;;;;5065380;28;20048;-68
2023/08/07 05:13:20;;;;;;;2.67;2.05;;;13.60;63.10;;;;;;5051911;28;20127;-70
2023/08/07 05:15:49;;;;;;;2.17;1.98;;;13.60;63.10;;;;;;5063138;28;20048;-69
2023/08/07 05:18:15;;;;;;;3.13;1.70;;;13.60;63.20;;;;;;5061980;28;20028;-68
2023/08/07 05:20:42;;;;;;;3.17;1.40;;;13.60;63.20;;;;;;5067862;28;20036;-68
2023/08/07 05:23:08;;;;;;;2.03;1.75;;;13.60;63.20;;;;;;5064382;28;21955;-70
2023/08/07 05:25:34;;;;;;;4.03;1.95;;;13.60;63.70;;;;;;5068667;28;20036;-68
2023/08/07 05:28:00;;;;;;;2.70;1.90;;;13.50;63.00;;;;;;5062714;28;20032;-68
2023/08/07 05:30:26;;;;;;;4.15;1.60;;;13.50;63.00;;;;;;5071295;28;20498;-68
2023/08/07 05:32:52;;;;;;;3.08;1.95;;;13.60;63.20;;;;;;5064079;28;20043;-68
2023/08/07 05:35:18;;;;;;;1.73;1.52;;;13.60;63.20;;;;;;5058452;28;20394;-69
2023/08/07 05:37:44;;;;;;;2.45;1.70;;;13.60;63.20;;;;;;5051306;28;20543;-68
2023/08/07 05:40:11;;;;;;;2.10;1.33;;;13.70;63.40;;;;;;5070067;28;20044;-71
2023/08/07 05:42:38;;;;;;;3.20;1.48;;;13.70;63.30;;;;;;5060052;28;20042;-68
2023/08/07 05:45:05;;;;;;;3.70;1.75;;;13.80;63.60;;;;;;5065865;28;20067;-68
2023/08/07 05:47:32;;;;;;;5.35;1.52;;;13.90;64.40;;;;;;5053464;28;20036;-68
2023/08/07 05:49:59;;;;;;;1.55;1.10;;;14.00;64.80;;;;;;5057820;28;20522;-69
2023/08/07 05:52:25;;;;;;;1.77;1.30;;;14.20;65.10;;;;;;5063018;28;20032;-67
2023/08/07 05:54:52;;;;;;;3.47;1.70;;;14.30;65.40;;;;;;5065031;28;20638;-68
2023/08/07 05:57:18;;;;;;;4.40;1.40;;;14.40;65.90;;;;;;5046045;28;20032;-69
2023/08/07 05:59:45;;;;;;;2.35;1.33;;;14.60;66.40;;;;;;5051398;28;20152;-70
2023/08/07 06:02:11;;;;;;;1.73;1.33;;;14.80;66.70;;;;;;5066647;28;20266;-69
2023/08/07 06:04:38;;;;;;;1.48;1.23;;;15.00;67.00;;;;;;5057521;28;20031;-72
2023/08/07 06:07:05;;;;;;;2.17;1.80;;;15.20;67.20;;;;;;5057648;28;20040;-68
2023/08/07 06:09:35;;;;;;;2.72;1.40;;;15.40;67.40;;;;;;5054007;28;20036;-73
2023/08/07 06:12:04;;;;;;;1.40;1.30;;;15.60;67.50;;;;;;5064982;28;20047;-72
2023/08/07 06:14:31;;;;;;;4.40;1.65;;;15.80;67.60;;;;;;5067810;28;20518;-70
2023/08/07 06:17:01;;;;;;;1.30;1.10;;;16.00;67.80;;;;;;5063361;28;20036;-70
2023/08/07 06:19:28;;;;;;;2.95;1.20;;;16.10;67.70;;;;;;5043143;28;20064;-67
2023/08/07 06:21:57;;;;;;;2.58;1.55;;;16.30;67.80;;;;;;5059021;28;20032;-68
2023/08/07 06:24:25;;;;;;;2.47;1.50;;;16.50;67.90;;;;;;5061824;28;20071;-68
2023/08/07 06:26:52;;;;;;;1.60;1.38;;;16.60;67.80;;;;;;5063056;28;20032;-69
2023/08/07 06:29:18;;;;;;;1.80;1.20;;;16.80;67.90;;;;;;5070437;28;20032;-69
2023/08/07 06:31:48;;;;;;;3.00;1.38;;;16.90;67.90;;;;;;5067643;28;20484;-68
2023/08/07 06:34:14;;;;;;;4.28;2.08;;;17.00;67.80;;;;;;5052619;28;20052;-69
2023/08/07 06:36:40;;;;;;;2.28;1.73;;;17.00;67.70;;;;;;5062822;28;20032;-69
2023/08/07 06:39:06;;;;;;;2.47;1.33;;;17.00;67.60;;;;;;5055660;28;20032;-69
2023/08/07 06:41:32;;;;;;;3.38;1.58;;;17.00;67.60;;;;;;5067690;28;20035;-70
2023/08/07 06:44:02;;;;;;;4.65;2.20;;;17.00;67.70;;;;;;5055712;28;20033;-69
2023/08/07 06:46:28;;;;;;;4.25;2.10;;;17.00;67.70;;;;;;5062652;28;20056;-70
2023/08/07 06:48:55;;;;;;;1.95;1.75;;;17.00;67.70;;;;;;5064405;28;20152;-68
2023/08/07 06:51:21;;;;;;;2.47;2.20;;;17.10;67.90;;;;;;5066975;28;20472;-67
2023/08/07 06:53:48;;;;;;;3.20;1.77;;;17.10;67.60;;;;;;5057296;28;20106;-69
2023/08/07 06:56:14;;;;;;;3.20;2.05;;;17.20;67.60;;;;;;5064443;28;20032;-67
2023/08/07 06:58:41;;;;;;;4.32;2.00;;;17.20;67.50;;;;;;5060457;28;20082;-70
2023/08/07 07:01:07;;;;;;;4.05;1.83;;;17.30;67.60;;;;;;5075729;28;20043;-68
2023/08/07 07:03:33;;;;;;;2.95;2.58;;;17.50;67.70;;;;;;5078730;28;20033;-70
2023/08/07 07:06:00;;;;;;;3.10;1.95;;;17.70;67.40;;;;;;5064911;28;20103;-69
2023/08/07 07:08:26;;;;;;;2.88;1.85;;;17.90;67.20;;;;;;5049215;28;20094;-67
2023/08/07 07:10:53;;;;;;;3.88;2.15;;;18.00;66.90;;;;;;5058262;28;20141;-70
2023/08/07 07:13:19;;;;;;;3.17;1.75;;;18.00;66.70;;;;;;5065223;28;20114;-67
2023/08/07 07:15:45;;;;;;;3.58;2.25;;;18.00;66.50;;;;;;5056684;28;20477;-68
2023/08/07 07:18:12;;;;;;;4.95;2.35;;;18.10;66.60;;;;;;5055966;28;20028;-67
2023/08/07 07:20:38;;;;;;;7.65;2.83;;;18.20;67.00;;;;;;5052867;28;20040;-71
2023/08/07 07:23:05;;;;;;;10.63;3.03;;;18.50;67.00;;;;;;5049576;28;20028;-70
2023/08/07 07:25:32;;;;;;;11.88;3.83;;;19.20;67.00;;;;;;5057152;28;20245;-71
2023/08/07 07:27:58;;;;;;;7.82;3.53;;;20.00;66.50;;;;;;5063574;28;20460;-71
2023/08/07 07:30:25;;;;;;;12.07;3.60;;;20.70;65.30;;;;;;5061578;28;20028;-69
2023/08/07 07:32:51;;;;;;;10.23;4.10;;;21.00;64.30;;;;;;5062527;28;20076;-68
2023/08/07 07:35:18;;;;;;;10.93;3.20;;;21.10;64.00;;;;;;5061414;28;20075;-69
2023/08/07 07:37:44;;;;;;;7.43;3.38;;;21.10;63.90;;;;;;5062257;28;20063;-69
2023/08/07 07:40:11;;;;;;;6.70;2.58;;;21.10;64.00;;;;;;5073143;28;20060;-67
2023/08/07 07:42:38;;;;;;;7.13;2.95;;;21.30;64.20;;;;;;5063556;28;20036;-68
2023/08/07 07:45:07;;;;;;;6.35;2.65;;;21.80;64.00;;;;;;5057740;28;20586;-69
2023/08/07 07:47:34;;;;;;;5.60;2.65;;;22.20;63.50;;;;;;5055457;28;20518;-69
2023/08/07 07:50:08;;;;;;;5.68;2.63;;;22.60;63.40;;;;;;5057280;28;20040;-68
2023/08/07 07:52:34;;;;;;;6.95;2.70;;;22.90;63.20;;;;;;5059578;28;20040;-68
2023/08/07 07:55:05;;;;;;;5.18;2.92;;;23.00;63.10;;;;;;5057113;28;20051;-68
2023/08/07 07:57:31;;;;;;;4.70;2.58;;;23.20;63.80;;;;;;5049336;28;20370;-68
2023/08/07 07:59:58;;;;;;;7.13;2.67;;;23.20;63.10;;;;;;5053666;28;20043;-68
2023/08/07 08:02:24;;;;;;;5.35;2.60;;;23.30;63.70;;;;;;5061866;28;20075;-69
2023/08/07 08:04:53;;;;;;;4.88;2.20;;;23.40;62.90;;;;;;5055765;28;20111;-69
2023/08/07 08:07:21;;;;;;;6.57;3.85;;;23.60;62.70;;;;;;5059330;28;20777;-68
2023/08/07 08:09:47;;;;;;;6.75;2.60;;;23.70;62.30;;;;;;5048725;28;20484;-71
2023/08/07 08:12:13;;;;;;;4.97;2.60;;;23.90;62.20;;;;;;5052812;28;20037;-68
2023/08/07 08:14:38;;;;;;;12.68;3.17;;;24.10;62.00;;;;;;5058673;28;20468;-71
2023/08/07 08:17:05;;;;;;;4.00;2.30;;;24.20;61.70;;;;;;5056205;28;20042;-69
2023/08/07 08:19:32;;;;;;;4.15;2.78;;;24.30;61.60;;;;;;5061575;28;20032;-69
2023/08/07 08:21:58;;;;;;;4.28;2.50;;;24.30;61.40;;;;;;5051992;28;20374;-68
2023/08/07 08:24:24;;;;;;;5.20;2.38;;;24.30;61.30;;;;;;5055572;28;20555;-68
2023/08/07 08:26:51;;;;;;;5.43;2.50;;;24.10;61.20;;;;;;5054452;28;20397;-68
2023/08/07 08:29:17;;;;;;;3.85;2.17;;;24.00;61.40;;;;;;5057375;28;20070;-71
2023/08/07 08:31:44;;;;;;;4.28;1.73;;;23.80;61.40;;;;;;5060210;28;20052;-69
2023/08/07 08:34:13;;;;;;;3.05;1.40;;;23.70;61.50;;;;;;5063077;28;20126;-72
2023/08/07 08:36:39;;;;;;;4.53;2.25;;;23.50;61.50;;;;;;5058764;28;20028;-70
2023/08/07 08:39:06;;;;;;;4.00;1.67;;;23.40;61.60;;;;;;5057081;28;20261;-71
2023/08/07 08:41:33;;;;;;;1.90;1.45;;;23.20;61.50;;;;;;5058994;28;20314;-70
2023/08/07 08:44:01;;;;;;;5.18;1.63;;;23.20;61.70;;;;;;5060920;28;20052;-71
2023/08/07 08:46:31;;;;;;;2.45;1.52;;;23.10;61.70;;;;;;5058232;28;20461;-71
2023/08/07 08:48:58;;;;;;;2.53;1.42;;;23.10;61.70;;;;;;5059674;28;20090;-72
2023/08/07 08:51:25;;;;;;;3.60;1.50;;;23.00;61.60;;;;;;5060298;28;20028;-68
2023/08/07 08:53:53;;;;;;;5.32;1.77;;;23.00;61.50;;;;;;5064356;28;20059;-72
2023/08/07 08:56:22;;;;;;;2.30;1.77;;;23.00;61.30;;;;;;5056484;28;20032;-71
2023/08/07 08:58:50;;;;;;;3.28;1.63;;;23.00;61.10;;;;;;5050372;28;20048;-71
2023/08/07 09:01:18;;;;;;;2.88;1.45;;;23.00;61.00;;;;;;5065082;28;20032;-72
2023/08/07 09:03:45;;;;;;;2.17;1.20;;;23.10;61.00;;;;;;5058734;28;20447;-68
2023/08/07 09:06:12;;;;;;;2.95;1.70;;;23.20;60.90;;;;;;5066390;28;20532;-68
2023/08/07 09:08:43;;;;;;;2.03;1.42;;;23.40;61.00;;;;;;5051536;28;20032;-69
2023/08/07 09:11:11;;;;;;;1.83;1.17;;;23.50;60.70;;;;;;5060103;28;20055;-67
2023/08/07 09:13:40;;;;;;;3.20;1.15;;;23.60;60.60;;;;;;5061774;28;20448;-68
2023/08/07 09:16:08;;;;;;;3.15;2.15;;;23.70;60.30;;;;;;5058614;28;20048;-69
2023/08/07 09:18:35;;;;;;;4.57;1.48;;;23.80;60.00;;;;;;5060644;28;20033;-70
2023/08/07 09:21:02;;;;;;;4.03;1.60;;;23.90;59.80;;;;;;5056771;28;20043;-71
2023/08/07 09:23:28;;;;;;;2.40;1.27;;;24.00;59.60;;;;;;5068832;28;20482;-69
2023/08/07 09:26:04;;;;;;;4.60;1.40;;;24.10;59.30;;;;;;5061125;28;20266;-69
2023/08/07 09:28:31;;;;;;;2.03;1.10;;;24.10;58.80;;;;;;5053947;28;20040;-68
2023/08/07 09:30:59;;;;;;;3.03;1.25;;;24.10;59.20;;;;;;5059185;28;20059;-68
2023/08/07 09:33:26;;;;;;;3.22;1.40;;;24.10;58.20;;;;;;5049340;28;20072;-68
2023/08/07 09:35:56;;;;;;;2.63;1.08;;;24.20;58.20;;;;;;5072839;28;20086;-68
2023/08/07 09:38:23;;;;;;;1.52;1.23;;;24.20;58.10;;;;;;5055057;28;20499;-68
2023/08/07 09:40:53;;;;;;;4.47;2.15;;;24.30;58.10;;;;;;5054827;28;20048;-68
2023/08/07 09:43:22;;;;;;;1.70;1.15;;;24.50;58.20;;;;;;5058646;28;20060;-68
2023/08/07 09:45:51;;;;;;;2.42;1.10;;;24.60;57.90;;;;;;5064824;28;20074;-69
2023/08/07 09:48:25;;;;;;;2.63;1.10;;;24.80;57.90;;;;;;5054712;28;20384;-69
2023/08/07 09:50:51;;;;;;;2.08;1.20;;;25.00;57.80;;;;;;5062077;28;20039;-70
2023/08/07 09:53:27;;;;;;;1.13;0.90;;;25.10;57.60;;;;;;5060519;28;20117;-68
2023/08/07 09:55:54;;;;;;;2.22;0.93;;;25.20;57.20;;;;;;5063940;28;20043;-69
2023/08/07 09:58:21;;;;;;;2.45;1.15;;;25.40;57.20;;;;;;5053440;28;20075;-69
2023/08/07 10:00:48;;;;;;;2.95;1.23;;;25.40;56.90;;;;;;5048632;28;20039;-69
2023/08/07 10:03:16;;;;;;;2.40;1.20;;;25.30;56.70;;;;;;5062637;28;20448;-71
2023/08/07 10:05:43;;;;;;;1.70;0.82;;;25.30;56.60;;;;;;5069259;28;20074;-70
2023/08/07 10:08:11;;;;;;;4.88;1.25;;;25.20;56.50;;;;;;5051452;28;20123;-72
2023/08/07 10:10:39;;;;;;;3.40;1.63;;;25.10;56.40;;;;;;5059537;28;20354;-70
2023/08/07 10:13:05;;;;;;;1.65;1.08;;;24.90;56.70;;;;;;5069165;28;20493;-70
2023/08/07 10:15:34;;;;;;;3.72;1.67;;;24.70;55.90;;;;;;5067856;28;20381;-69
2023/08/07 10:18:01;;;;;;;2.47;1.00;;;24.50;55.90;;;;;;5055781;28;20025;-69
2023/08/07 10:20:29;;;;;;;5.35;1.20;;;24.40;55.90;;;;;;5058953;28;20396;-69
2023/08/07 10:23:10;;;;;;;3.03;0.85;;;24.40;55.90;;;;;;5058539;28;20308;-70
2023/08/07 10:25:43;;;;;;;2.45;1.00;;;24.40;55.60;;;;;;5054187;28;20032;-70
2023/08/07 10:28:14;;;;;;;2.47;1.52;;;24.40;55.70;;;;;;5054685;28;20064;-73
2023/08/07 10:30:42;;;;;;;2.45;1.42;;;24.40;55.50;;;;;;5062125;28;20101;-70
2023/08/07 10:33:13;;;;;;;4.10;1.55;;;24.40;55.50;;;;;;5067821;28;20046;-70
2023/08/07 10:35:47;;;;;;;1.77;1.23;;;24.50;55.30;;;;;;5061302;28;20058;-68
2023/08/07 10:38:13;;;;;;;2.20;1.00;;;24.50;55.10;;;;;;5064597;28;20093;-69
2023/08/07 10:41:00;;;;;;;2.63;1.42;;;24.50;55.00;;;;;;5069649;28;20067;-72
2023/08/07 10:43:28;;;;;;;3.35;1.70;;;24.50;54.80;;;;;;5055110;28;20344;-69
2023/08/07 10:46:04;;;;;;;2.35;0.98;;;24.40;55.00;;;;;;5060791;28;20111;-68
2023/08/07 10:48:41;;;;;;;3.15;1.02;;;24.40;55.00;;;;;;5053277;28;20829;-69
2023/08/07 10:51:08;;;;;;;2.05;0.95;;;24.30;54.80;;;;;;5057927;28;20028;-68
2023/08/07 10:53:45;;;;;;;3.42;1.52;;;24.30;55.10;;;;;;5052389;28;20117;-69
2023/08/07 10:56:32;;;;;;;3.55;1.27;;;24.30;55.20;;;;;;5062313;28;20091;-71
2023/08/07 10:59:07;;;;;;;3.63;1.50;;;24.40;55.00;;;;;;5048098;28;20045;-69
2023/08/07 11:01:34;;;;;;;2.75;1.30;;;24.40;55.10;;;;;;5062786;28;20905;-71
2023/08/07 11:04:14;;;;;;;1.90;1.13;;;24.50;55.20;;;;;;5060721;28;20391;-71
2023/08/07 11:06:41;;;;;;;2.90;1.20;;;24.70;55.20;;;;;;5054382;28;20143;-70
2023/08/07 11:09:09;;;;;;;3.55;1.38;;;24.90;55.20;;;;;;5045494;28;20032;-70
2023/08/07 11:11:39;;;;;;;3.63;1.30;;;25.10;55.10;;;;;;5055240;28;20100;-71
2023/08/07 11:14:10;;;;;;;7.22;1.58;;;25.10;54.80;;;;;;5050776;28;20040;-71
2023/08/07 11:16:37;;;;;;;3.53;1.52;;;25.10;54.70;;;;;;5043157;28;20040;-67
2023/08/07 11:19:05;;;;;;;3.72;1.15;;;25.10;54.70;;;;;;5054252;28;20036;-68
2023/08/07 11:21:32;;;;;;;3.83;1.38;;;25.20;54.80;;;;;;5052487;28;20028;-68
2023/08/07 11:23:59;;;;;;;4.18;1.20;;;25.30;54.80;;;;;;5067944;28;20081;-68
2023/08/07 11:26:26;;;;;;;1.88;0.98;;;25.40;54.70;;;;;;5058574;28;20037;-67
2023/08/07 11:28:52;;;;;;;1.90;1.20;;;25.50;54.70;;;;;;5062359;28;20477;-67
2023/08/07 11:31:19;;;;;;;5.68;1.30;;;25.60;54.60;;;;;;5056271;28;20039;-67
2023/08/07 11:33:45;;;;;;;2.03;1.02;;;25.80;54.40;;;;;;5052318;28;20044;-67
2023/08/07 11:36:13;;;;;;;2.70;1.17;;;25.90;54.30;;;;;;5057160;28;20047;-69
2023/08/07 11:38:43;;;;;;;3.05;1.60;;;26.00;54.00;;;;;;5052741;28;20487;-69
2023/08/07 11:41:15;;;;;;;4.45;1.30;;;26.20;53.90;;;;;;5056957;28;20048;-69
2023/08/07 11:43:42;;;;;;;5.55;1.38;;;26.30;53.60;;;;;;5063720;28;20271;-69
2023/08/07 11:46:11;;;;;;;1.85;1.20;;;26.50;53.50;;;;;;5061206;28;20109;-67
2023/08/07 11:48:39;;;;;;;3.15;1.70;;;26.60;53.90;;;;;;5051578;28;20063;-68
2023/08/07 11:51:06;;;;;;;3.75;1.20;;;26.70;53.20;;;;;;5055041;28;20678;-67
2023/08/07 11:53:38;;;;;;;1.60;1.02;;;26.80;53.00;;;;;;5053030;28;20035;-71
2023/08/07 11:56:06;;;;;;;2.38;1.40;;;26.80;52.80;;;;;;5061861;28;20156;-67
2023/08/07 11:58:40;;;;;;;2.40;1.35;;;26.90;52.60;;;;;;5055137;28;20260;-69
2023/08/07 12:01:11;;;;;;;3.60;1.35;;;26.90;52.40;;;;;;5066769;28;20039;-67
2023/08/07 12:03:41;;;;;;;2.05;1.13;;;27.00;52.40;;;;;;5072816;28;20043;-68
2023/08/07 12:06:08;;;;;;;1.67;0.68;;;27.10;52.30;;;;;;5062428;28;20496;-69
2023/08/07 12:08:37;;;;;;;4.78;1.35;;;27.10;52.30;;;;;;5054998;28;20496;-67
2023/08/07 12:11:09;;;;;;;1.40;0.80;;;27.10;52.10;;;;;;5059038;28;20060;-67
2023/08/07 12:13:53;;;;;;;0.95;0.70;;;27.20;52.00;;;;;;5057010;28;20033;-68
2023/08/07 12:16:20;;;;;;;3.47;1.50;;;27.30;51.80;;;;;;5061676;28;20067;-70
2023/08/07 12:18:48;;;;;;;2.58;0.90;;;27.30;51.90;;;;;;5058797;28;20060;-67
2023/08/07 12:21:23;;;;;;;3.53;1.20;;;27.40;51.80;;;;;;5063837;28;20119;-68
2023/08/07 12:23:51;;;;;;;1.85;0.98;;;27.40;51.70;;;;;;5058080;28;20744;-68
2023/08/07 12:26:18;;;;;;;2.72;1.20;;;27.40;51.70;;;;;;5062195;28;20063;-69
2023/08/07 12:28:44;;;;;;;1.38;0.90;;;27.40;51.60;;;;;;5061848;28;20119;-71
2023/08/07 12:31:11;;;;;;;4.15;1.60;;;27.40;51.60;;;;;;5068147;28;20476;-68
2023/08/07 12:33:37;;;;;;;2.35;1.00;;;27.40;51.50;;;;;;5057330;28;20475;-69
2023/08/07 12:36:03;;;;;;;2.67;1.13;;;27.40;51.50;;;;;;5068495;28;20105;-68
2023/08/07 12:38:30;;;;;;;1.48;1.02;;;27.30;51.40;;;;;;5057535;28;20036;-68
2023/08/07 12:40:56;;;;;;;5.05;1.38;;;27.40;51.40;;;;;;5053384;28;20054;-68
2023/08/07 12:43:22;;;;;;;1.73;0.90;;;27.40;51.40;;;;;;5060957;28;20036;-71
2023/08/07 12:45:48;;;;;;;2.08;1.05;;;27.40;51.30;;;;;;5066149;28;20043;-68
2023/08/07 12:48:15;;;;;;;3.50;1.27;;;27.40;51.10;;;;;;5052804;28;20048;-71